Olympic National Park, WA

01:21 PM PDT am 02. August 2015 (GMT -0700)
Lake Dawn | | Change Station
CLOSE
Current Station
Persönliche Wetterstationen
Location: Port Angeles, WA
Höhe: 1864 ft
Wetterstationen in der Umgebung

Höhe 1864 ft 48.04 °N, 123.43 °W | Updated 6 minutes ago

Heiter
Heiter
79.2 °F
gefühlte 79 °F
N
8.3
Wind Wechselnd Wind aus Südost
Gusts 8.3 mph

Heute
Max. -- | schwach -- °F
--% Regenrisiko
Gestern
Max. -- | schwach -- °F
Precip. -- inch
5:51 AM 8:48 PM
Drittes Viertel, 92% visible
Druck 29.95 inch
Sichtweite 10.0 Meilen
Wolken Few 200 ft
Hitzeindex 79 °F
Taupunkt 49 °F
Feuchtigkeit 35%
Regen 0.00 inch
Schneehöhe Nicht verfügbar..
UV 9 von 12
Pollen 4.30 von 12
Luftqualität Nicht verfügbar..
Flu Activity Nicht verfügbar..
METAR KCLM 021953Z AUTO VRB04KT 10SM FEW002 22/12 A2995 RMK AO2 SLP142 T02220122

More Conditions Fewer Conditions

Druck 29.95 inch
Sichtweite 10.0 Meilen
Wolken Few 200 ft
Hitzeindex 79 °F
Taupunkt 49 °F
Feuchtigkeit 35%
Regen 0.00 inch
Schneehöhe Nicht verfügbar..
UV 9 von 12
Pollen 4.30 von 12
Luftqualität Nicht verfügbar..
Flu Activity Nicht verfügbar..
METAR KCLM 021953Z AUTO VRB04KT 10SM FEW002 22/12 A2995 RMK AO2 SLP142 T02220122

More Conditions Fewer Conditions

10-Day Weather Forecast

×

Almanac

Astronomie

Aug. 02, 2015 Aufgang Untergang
Genaue Zeit
Bürgerliche Dämmerung
Nautische Dämmerung
Astronomische Dämmerung
Mond
Länge des sichtbaren Lichts
Tageslänge
Tomorrow will be .
, % of the Moon is Illuminated

Heutige Rekorde

State Highs State Lows

Community

WunderPhotos

Upload Photos

1,843,364 Fotos hochgeladen!

WunderBlogs® & News

Nearby

Luftqualität

  Luftqualität LQ Index Schadstoff
Not available.

Schneehöhe

Station Depth Höhe

Erdbebenaktivität

Stadt Distance Mag. Time & Date
Minimum magnitude displayed is 2.5.

küstennahe Wassertemperaturen

Ort Temperatur

Stations

Wetterstationen in der Umgebung

Stationsstandort Temp. Windchill Taupunkt Feuchtigkeit Wind Precip. Höhe Aktualisiert Art